sensor_id;sensor_type;location;lat;lon;timestamp;P1;durP1;ratioP1;P2;durP2;ratioP2
65375;SDS011;51976;47.332;9.404;2023-11-19T00:00:04;1.42;;;0.20;;
65375;SDS011;51976;47.332;9.404;2023-11-19T00:02:31;0.75;;;0.20;;
65375;SDS011;51976;47.332;9.404;2023-11-19T00:04:57;0.73;;;0.30;;
65375;SDS011;51976;47.332;9.404;2023-11-19T00:07:23;0.82;;;0.30;;
65375;SDS011;51976;47.332;9.404;2023-11-19T00:09:48;0.60;;;0.30;;
65375;SDS011;51976;47.332;9.404;2023-11-19T00:12:14;0.40;;;0.20;;
65375;SDS011;51976;47.332;9.404;2023-11-19T00:14:39;0.35;;;0.20;;
65375;SDS011;51976;47.332;9.404;2023-11-19T00:17:05;1.92;;;0.20;;
65375;SDS011;51976;47.332;9.404;2023-11-19T00:19:31;0.40;;;0.20;;
65375;SDS011;51976;47.332;9.404;2023-11-19T00:21:56;1.95;;;0.30;;
65375;SDS011;51976;47.332;9.404;2023-11-19T00:24:22;0.47;;;0.20;;
65375;SDS011;51976;47.332;9.404;2023-11-19T00:26:47;2.17;;;0.20;;
65375;SDS011;51976;47.332;9.404;2023-11-19T00:29:13;0.57;;;0.20;;
65375;SDS011;51976;47.332;9.404;2023-11-19T00:31:39;0.28;;;0.13;;
65375;SDS011;51976;47.332;9.404;2023-11-19T00:34:04;0.20;;;0.10;;
65375;SDS011;51976;47.332;9.404;2023-11-19T00:36:31;0.25;;;0.22;;
65375;SDS011;51976;47.332;9.404;2023-11-19T00:38:56;0.28;;;0.10;;
65375;SDS011;51976;47.332;9.404;2023-11-19T00:41:22;0.35;;;0.10;;
65375;SDS011;51976;47.332;9.404;2023-11-19T00:43:47;0.73;;;0.20;;
65375;SDS011;51976;47.332;9.404;2023-11-19T00:46:14;0.10;;;0.00;;
65375;SDS011;51976;47.332;9.404;2023-11-19T00:48:39;0.50;;;0.10;;
65375;SDS011;51976;47.332;9.404;2023-11-19T00:51:05;0.47;;;0.10;;
65375;SDS011;51976;47.332;9.404;2023-11-19T00:53:31;0.22;;;0.05;;
65375;SDS011;51976;47.332;9.404;2023-11-19T00:55:59;0.45;;;0.10;;
65375;SDS011;51976;47.332;9.404;2023-11-19T00:58:25;0.10;;;0.00;;
65375;SDS011;51976;47.332;9.404;2023-11-19T01:00:51;0.60;;;0.20;;
65375;SDS011;51976;47.332;9.404;2023-11-19T01:03:16;2.58;;;0.20;;
65375;SDS011;51976;47.332;9.404;2023-11-19T01:05:42;0.32;;;0.10;;
65375;SDS011;51976;47.332;9.404;2023-11-19T01:08:08;1.83;;;0.10;;
65375;SDS011;51976;47.332;9.404;2023-11-19T01:10:34;0.38;;;0.10;;
65375;SDS011;51976;47.332;9.404;2023-11-19T01:13:02;0.03;;;0.00;;
65375;SDS011;51976;47.332;9.404;2023-11-19T01:15:30;0.20;;;0.08;;
65375;SDS011;51976;47.332;9.404;2023-11-19T01:17:56;0.57;;;0.20;;
65375;SDS011;51976;47.332;9.404;2023-11-19T01:20:21;1.33;;;0.15;;
65375;SDS011;51976;47.332;9.404;2023-11-19T01:22:47;0.75;;;0.17;;
65375;SDS011;51976;47.332;9.404;2023-11-19T01:25:13;1.85;;;0.20;;
65375;SDS011;51976;47.332;9.404;2023-11-19T01:27:39;0.20;;;0.10;;
65375;SDS011;51976;47.332;9.404;2023-11-19T01:30:04;0.68;;;0.10;;
65375;SDS011;51976;47.332;9.404;2023-11-19T01:32:31;0.20;;;0.10;;
65375;SDS011;51976;47.332;9.404;2023-11-19T01:34:57;0.35;;;0.10;;
65375;SDS011;51976;47.332;9.404;2023-11-19T01:37:22;0.80;;;0.15;;
65375;SDS011;51976;47.332;9.404;2023-11-19T01:39:48;0.20;;;0.10;;
65375;SDS011;51976;47.332;9.404;2023-11-19T01:42:13;1.35;;;0.13;;
65375;SDS011;51976;47.332;9.404;2023-11-19T01:44:39;0.40;;;0.10;;
65375;SDS011;51976;47.332;9.404;2023-11-19T01:47:04;0.40;;;0.20;;
65375;SDS011;51976;47.332;9.404;2023-11-19T01:49:31;0.52;;;0.20;;
65375;SDS011;51976;47.332;9.404;2023-11-19T01:51:57;0.45;;;0.20;;
65375;SDS011;51976;47.332;9.404;2023-11-19T01:54:23;0.20;;;0.10;;
65375;SDS011;51976;47.332;9.404;2023-11-19T01:56:49;0.20;;;0.10;;
65375;SDS011;51976;47.332;9.404;2023-11-19T01:59:14;0.28;;;0.17;;
65375;SDS011;51976;47.332;9.404;2023-11-19T02:01:41;0.17;;;0.10;;
65375;SDS011;51976;47.332;9.404;2023-11-19T02:04:07;0.22;;;0.10;;
65375;SDS011;51976;47.332;9.404;2023-11-19T02:06:34;0.30;;;0.10;;
65375;SDS011;51976;47.332;9.404;2023-11-19T02:09:02;0.55;;;0.17;;
65375;SDS011;51976;47.332;9.404;2023-11-19T02:11:32;0.45;;;0.20;;
65375;SDS011;51976;47.332;9.404;2023-11-19T02:13:58;0.77;;;0.77;;
65375;SDS011;51976;47.332;9.404;2023-11-19T02:16:24;0.25;;;0.10;;
65375;SDS011;51976;47.332;9.404;2023-11-19T02:18:49;0.75;;;0.22;;
65375;SDS011;51976;47.332;9.404;2023-11-19T02:21:14;0.73;;;0.20;;
65375;SDS011;51976;47.332;9.404;2023-11-19T02:23:40;0.35;;;0.10;;
65375;SDS011;51976;47.332;9.404;2023-11-19T02:26:18;0.35;;;0.10;;
65375;SDS011;51976;47.332;9.404;2023-11-19T02:28:53;0.10;;;0.10;;
65375;SDS011;51976;47.332;9.404;2023-11-19T02:31:18;0.52;;;0.20;;
65375;SDS011;51976;47.332;9.404;2023-11-19T02:33:44;1.02;;;0.20;;
65375;SDS011;51976;47.332;9.404;2023-11-19T02:36:09;0.20;;;0.10;;
65375;SDS011;51976;47.332;9.404;2023-11-19T02:38:35;0.15;;;0.10;;
65375;SDS011;51976;47.332;9.404;2023-11-19T02:41:03;0.20;;;0.20;;
65375;SDS011;51976;47.332;9.404;2023-11-19T02:43:33;0.30;;;0.20;;
65375;SDS011;51976;47.332;9.404;2023-11-19T02:46:02;0.43;;;0.13;;
65375;SDS011;51976;47.332;9.404;2023-11-19T02:48:35;0.50;;;0.30;;
65375;SDS011;51976;47.332;9.404;2023-11-19T02:51:01;0.10;;;0.08;;
65375;SDS011;51976;47.332;9.404;2023-11-19T02:53:28;0.60;;;0.40;;
65375;SDS011;51976;47.332;9.404;2023-11-19T02:55:54;0.20;;;0.10;;
65375;SDS011;51976;47.332;9.404;2023-11-19T02:58:26;0.95;;;0.20;;
65375;SDS011;51976;47.332;9.404;2023-11-19T03:00:53;0.40;;;0.20;;
65375;SDS011;51976;47.332;9.404;2023-11-19T03:03:23;1.00;;;0.20;;
65375;SDS011;51976;47.332;9.404;2023-11-19T03:05:53;0.60;;;0.10;;
65375;SDS011;51976;47.332;9.404;2023-11-19T03:08:19;0.30;;;0.10;;
65375;SDS011;51976;47.332;9.404;2023-11-19T03:10:44;0.43;;;0.25;;
65375;SDS011;51976;47.332;9.404;2023-11-19T03:13:11;0.30;;;0.10;;
65375;SDS011;51976;47.332;9.404;2023-11-19T03:15:39;0.38;;;0.10;;
65375;SDS011;51976;47.332;9.404;2023-11-19T03:18:05;0.22;;;0.10;;
65375;SDS011;51976;47.332;9.404;2023-11-19T03:20:30;0.57;;;0.10;;
65375;SDS011;51976;47.332;9.404;2023-11-19T03:22:55;0.10;;;0.00;;
65375;SDS011;51976;47.332;9.404;2023-11-19T03:25:24;0.35;;;0.10;;
65375;SDS011;51976;47.332;9.404;2023-11-19T03:27:51;0.70;;;0.25;;
65375;SDS011;51976;47.332;9.404;2023-11-19T03:30:18;1.38;;;0.10;;
65375;SDS011;51976;47.332;9.404;2023-11-19T03:32:45;0.00;;;0.00;;
65375;SDS011;51976;47.332;9.404;2023-11-19T03:35:11;1.55;;;0.10;;
65375;SDS011;51976;47.332;9.404;2023-11-19T03:37:37;0.30;;;0.10;;
65375;SDS011;51976;47.332;9.404;2023-11-19T03:40:02;1.58;;;0.10;;
65375;SDS011;51976;47.332;9.404;2023-11-19T03:42:29;0.50;;;0.10;;
65375;SDS011;51976;47.332;9.404;2023-11-19T03:44:57;0.20;;;0.10;;
65375;SDS011;51976;47.332;9.404;2023-11-19T03:47:23;0.20;;;0.10;;
65375;SDS011;51976;47.332;9.404;2023-11-19T03:49:49;0.65;;;0.20;;
65375;SDS011;51976;47.332;9.404;2023-11-19T03:52:15;0.15;;;0.10;;
65375;SDS011;51976;47.332;9.404;2023-11-19T03:54:41;0.30;;;0.20;;
65375;SDS011;51976;47.332;9.404;2023-11-19T03:57:06;0.30;;;0.10;;
65375;SDS011;51976;47.332;9.404;2023-11-19T03:59:31;0.57;;;0.20;;
65375;SDS011;51976;47.332;9.404;2023-11-19T04:01:58;0.22;;;0.10;;
65375;SDS011;51976;47.332;9.404;2023-11-19T04:04:25;0.55;;;0.13;;
65375;SDS011;51976;47.332;9.404;2023-11-19T04:06:51;0.25;;;0.10;;
65375;SDS011;51976;47.332;9.404;2023-11-19T04:09:16;0.63;;;0.20;;
65375;SDS011;51976;47.332;9.404;2023-11-19T04:11:42;0.32;;;0.10;;
65375;SDS011;51976;47.332;9.404;2023-11-19T04:14:07;0.30;;;0.10;;
65375;SDS011;51976;47.332;9.404;2023-11-19T04:16:33;0.22;;;0.10;;
65375;SDS011;51976;47.332;9.404;2023-11-19T04:18:58;0.30;;;0.10;;
65375;SDS011;51976;47.332;9.404;2023-11-19T04:21:23;0.20;;;0.10;;
65375;SDS011;51976;47.332;9.404;2023-11-19T04:23:49;0.70;;;0.10;;
65375;SDS011;51976;47.332;9.404;2023-11-19T04:26:14;0.10;;;0.08;;
65375;SDS011;51976;47.332;9.404;2023-11-19T04:28:40;0.30;;;0.20;;
65375;SDS011;51976;47.332;9.404;2023-11-19T04:31:06;0.43;;;0.20;;
65375;SDS011;51976;47.332;9.404;2023-11-19T04:33:31;0.30;;;0.10;;
65375;SDS011;51976;47.332;9.404;2023-11-19T04:35:57;0.17;;;0.10;;
65375;SDS011;51976;47.332;9.404;2023-11-19T04:38:22;0.45;;;0.10;;
65375;SDS011;51976;47.332;9.404;2023-11-19T04:40:47;0.65;;;0.10;;
65375;SDS011;51976;47.332;9.404;2023-11-19T04:43:13;0.17;;;0.10;;
65375;SDS011;51976;47.332;9.404;2023-11-19T04:45:38;0.40;;;0.20;;
65375;SDS011;51976;47.332;9.404;2023-11-19T04:48:04;0.52;;;0.13;;
65375;SDS011;51976;47.332;9.404;2023-11-19T04:50:30;0.30;;;0.20;;
65375;SDS011;51976;47.332;9.404;2023-11-19T04:52:55;0.60;;;0.30;;
65375;SDS011;51976;47.332;9.404;2023-11-19T04:55:21;1.00;;;0.30;;
65375;SDS011;51976;47.332;9.404;2023-11-19T04:57:47;0.57;;;0.10;;
65375;SDS011;51976;47.332;9.404;2023-11-19T05:00:13;0.63;;;0.10;;
65375;SDS011;51976;47.332;9.404;2023-11-19T05:02:38;0.00;;;0.00;;
65375;SDS011;51976;47.332;9.404;2023-11-19T05:05:04;0.50;;;0.15;;
65375;SDS011;51976;47.332;9.404;2023-11-19T05:07:30;0.32;;;0.10;;
65375;SDS011;51976;47.332;9.404;2023-11-19T05:09:55;0.60;;;0.20;;
65375;SDS011;51976;47.332;9.404;2023-11-19T05:12:21;0.60;;;0.20;;
65375;SDS011;51976;47.332;9.404;2023-11-19T05:14:47;0.85;;;0.30;;
65375;SDS011;51976;47.332;9.404;2023-11-19T05:17:15;1.50;;;0.30;;
65375;SDS011;51976;47.332;9.404;2023-11-19T05:19:43;2.22;;;0.20;;
65375;SDS011;51976;47.332;9.404;2023-11-19T05:22:08;0.95;;;0.17;;
65375;SDS011;51976;47.332;9.404;2023-11-19T05:24:33;0.35;;;0.10;;
65375;SDS011;51976;47.332;9.404;2023-11-19T05:27:00;0.32;;;0.10;;
65375;SDS011;51976;47.332;9.404;2023-11-19T05:29:26;0.20;;;0.10;;
65375;SDS011;51976;47.332;9.404;2023-11-19T05:31:52;0.55;;;0.10;;
65375;SDS011;51976;47.332;9.404;2023-11-19T05:34:17;0.22;;;0.20;;
65375;SDS011;51976;47.332;9.404;2023-11-19T05:36:42;0.10;;;0.00;;
65375;SDS011;51976;47.332;9.404;2023-11-19T05:39:08;0.30;;;0.10;;
65375;SDS011;51976;47.332;9.404;2023-11-19T05:41:33;1.45;;;0.10;;
65375;SDS011;51976;47.332;9.404;2023-11-19T05:43:59;0.20;;;0.08;;
65375;SDS011;51976;47.332;9.404;2023-11-19T05:46:24;0.05;;;0.00;;
65375;SDS011;51976;47.332;9.404;2023-11-19T05:48:52;0.35;;;0.08;;
65375;SDS011;51976;47.332;9.404;2023-11-19T05:51:17;0.17;;;0.00;;
65375;SDS011;51976;47.332;9.404;2023-11-19T05:53:43;0.08;;;0.00;;
65375;SDS011;51976;47.332;9.404;2023-11-19T05:56:10;0.10;;;0.00;;
65375;SDS011;51976;47.332;9.404;2023-11-19T05:58:36;0.17;;;0.08;;
65375;SDS011;51976;47.332;9.404;2023-11-19T06:01:02;0.00;;;0.00;;
65375;SDS011;51976;47.332;9.404;2023-11-19T06:03:28;0.40;;;0.00;;
65375;SDS011;51976;47.332;9.404;2023-11-19T06:05:54;0.10;;;0.00;;
65375;SDS011;51976;47.332;9.404;2023-11-19T06:08:19;0.10;;;0.00;;
65375;SDS011;51976;47.332;9.404;2023-11-19T06:10:45;0.08;;;0.00;;
65375;SDS011;51976;47.332;9.404;2023-11-19T06:13:12;0.52;;;0.00;;
65375;SDS011;51976;47.332;9.404;2023-11-19T06:15:43;0.35;;;0.10;;
65375;SDS011;51976;47.332;9.404;2023-11-19T06:18:09;0.30;;;0.08;;
65375;SDS011;51976;47.332;9.404;2023-11-19T06:20:36;0.38;;;0.10;;
65375;SDS011;51976;47.332;9.404;2023-11-19T06:23:02;0.13;;;0.08;;
65375;SDS011;51976;47.332;9.404;2023-11-19T06:25:27;0.00;;;0.00;;
65375;SDS011;51976;47.332;9.404;2023-11-19T06:27:52;0.15;;;0.10;;
65375;SDS011;51976;47.332;9.404;2023-11-19T06:30:18;0.10;;;0.00;;
65375;SDS011;51976;47.332;9.404;2023-11-19T06:32:44;0.10;;;0.00;;
65375;SDS011;51976;47.332;9.404;2023-11-19T06:35:10;0.10;;;0.00;;
65375;SDS011;51976;47.332;9.404;2023-11-19T06:37:36;0.43;;;0.10;;
65375;SDS011;51976;47.332;9.404;2023-11-19T06:40:04;0.00;;;0.00;;
65375;SDS011;51976;47.332;9.404;2023-11-19T06:42:30;0.15;;;0.00;;
65375;SDS011;51976;47.332;9.404;2023-11-19T06:44:56;0.63;;;0.10;;
65375;SDS011;51976;47.332;9.404;2023-11-19T06:47:22;0.60;;;0.10;;
65375;SDS011;51976;47.332;9.404;2023-11-19T06:49:50;0.00;;;0.00;;
65375;SDS011;51976;47.332;9.404;2023-11-19T06:52:16;0.10;;;0.00;;
65375;SDS011;51976;47.332;9.404;2023-11-19T06:54:41;0.40;;;0.13;;
65375;SDS011;51976;47.332;9.404;2023-11-19T06:57:06;0.20;;;0.13;;
65375;SDS011;51976;47.332;9.404;2023-11-19T06:59:34;0.30;;;0.10;;
65375;SDS011;51976;47.332;9.404;2023-11-19T07:01:59;0.20;;;0.00;;
65375;SDS011;51976;47.332;9.404;2023-11-19T07:04:25;0.32;;;0.10;;
65375;SDS011;51976;47.332;9.404;2023-11-19T07:06:50;0.30;;;0.03;;
65375;SDS011;51976;47.332;9.404;2023-11-19T07:09:17;0.75;;;0.15;;
65375;SDS011;51976;47.332;9.404;2023-11-19T07:11:43;1.45;;;0.10;;
65375;SDS011;51976;47.332;9.404;2023-11-19T07:14:10;0.20;;;0.08;;
65375;SDS011;51976;47.332;9.404;2023-11-19T07:16:37;1.52;;;0.30;;
65375;SDS011;51976;47.332;9.404;2023-11-19T07:19:03;1.00;;;0.30;;
65375;SDS011;51976;47.332;9.404;2023-11-19T07:21:30;1.58;;;0.32;;
65375;SDS011;51976;47.332;9.404;2023-11-19T07:23:56;0.52;;;0.30;;
65375;SDS011;51976;47.332;9.404;2023-11-19T07:26:21;1.15;;;0.50;;
65375;SDS011;51976;47.332;9.404;2023-11-19T07:28:48;1.05;;;0.40;;
65375;SDS011;51976;47.332;9.404;2023-11-19T07:31:14;1.30;;;0.40;;
65375;SDS011;51976;47.332;9.404;2023-11-19T07:33:39;0.82;;;0.30;;
65375;SDS011;51976;47.332;9.404;2023-11-19T07:36:07;0.50;;;0.20;;
65375;SDS011;51976;47.332;9.404;2023-11-19T07:38:33;0.32;;;0.20;;
65375;SDS011;51976;47.332;9.404;2023-11-19T07:40:58;0.45;;;0.10;;
65375;SDS011;51976;47.332;9.404;2023-11-19T07:43:24;0.60;;;0.30;;
65375;SDS011;51976;47.332;9.404;2023-11-19T07:45:49;0.40;;;0.10;;
65375;SDS011;51976;47.332;9.404;2023-11-19T07:48:15;0.68;;;0.15;;
65375;SDS011;51976;47.332;9.404;2023-11-19T07:50:40;4.18;;;2.00;;
65375;SDS011;51976;47.332;9.404;2023-11-19T07:53:06;4.78;;;2.38;;
65375;SDS011;51976;47.332;9.404;2023-11-19T07:55:32;1.52;;;1.00;;
65375;SDS011;51976;47.332;9.404;2023-11-19T07:57:58;1.02;;;0.57;;
65375;SDS011;51976;47.332;9.404;2023-11-19T08:00:24;0.65;;;0.35;;
65375;SDS011;51976;47.332;9.404;2023-11-19T08:02:49;0.47;;;0.25;;
65375;SDS011;51976;47.332;9.404;2023-11-19T08:05:14;0.73;;;0.40;;
65375;SDS011;51976;47.332;9.404;2023-11-19T08:07:40;0.40;;;0.28;;
65375;SDS011;51976;47.332;9.404;2023-11-19T08:10:06;0.45;;;0.10;;
65375;SDS011;51976;47.332;9.404;2023-11-19T08:12:34;0.45;;;0.30;;
65375;SDS011;51976;47.332;9.404;2023-11-19T08:15:01;0.52;;;0.25;;
65375;SDS011;51976;47.332;9.404;2023-11-19T08:17:27;0.10;;;0.10;;
65375;SDS011;51976;47.332;9.404;2023-11-19T08:19:53;0.70;;;0.20;;
65375;SDS011;51976;47.332;9.404;2023-11-19T08:22:18;0.88;;;0.25;;
65375;SDS011;51976;47.332;9.404;2023-11-19T08:24:43;0.60;;;0.40;;
65375;SDS011;51976;47.332;9.404;2023-11-19T08:27:09;0.05;;;0.03;;
65375;SDS011;51976;47.332;9.404;2023-11-19T08:29:34;0.40;;;0.20;;
65375;SDS011;51976;47.332;9.404;2023-11-19T08:32:00;0.60;;;0.10;;
65375;SDS011;51976;47.332;9.404;2023-11-19T08:34:27;2.05;;;0.30;;
65375;SDS011;51976;47.332;9.404;2023-11-19T08:36:53;0.30;;;0.10;;
65375;SDS011;51976;47.332;9.404;2023-11-19T08:39:18;0.75;;;0.10;;
65375;SDS011;51976;47.332;9.404;2023-11-19T08:41:46;0.40;;;0.20;;
65375;SDS011;51976;47.332;9.404;2023-11-19T08:44:12;0.20;;;0.10;;
65375;SDS011;51976;47.332;9.404;2023-11-19T08:46:37;0.63;;;0.30;;
65375;SDS011;51976;47.332;9.404;2023-11-19T08:49:04;0.70;;;0.10;;
65375;SDS011;51976;47.332;9.404;2023-11-19T08:51:30;0.50;;;0.10;;
65375;SDS011;51976;47.332;9.404;2023-11-19T08:53:56;0.30;;;0.10;;
65375;SDS011;51976;47.332;9.404;2023-11-19T08:56:22;0.10;;;0.10;;
65375;SDS011;51976;47.332;9.404;2023-11-19T08:58:48;0.22;;;0.10;;
65375;SDS011;51976;47.332;9.404;2023-11-19T09:01:13;0.35;;;0.20;;
65375;SDS011;51976;47.332;9.404;2023-11-19T09:03:39;0.30;;;0.20;;
65375;SDS011;51976;47.332;9.404;2023-11-19T09:06:05;0.10;;;0.00;;
65375;SDS011;51976;47.332;9.404;2023-11-19T09:08:31;0.10;;;0.00;;
65375;SDS011;51976;47.332;9.404;2023-11-19T09:10:56;0.35;;;0.10;;
65375;SDS011;51976;47.332;9.404;2023-11-19T09:13:22;0.43;;;0.17;;
65375;SDS011;51976;47.332;9.404;2023-11-19T09:15:48;1.08;;;0.28;;
65375;SDS011;51976;47.332;9.404;2023-11-19T09:18:13;1.65;;;0.20;;
65375;SDS011;51976;47.332;9.404;2023-11-19T09:20:38;0.40;;;0.10;;
65375;SDS011;51976;47.332;9.404;2023-11-19T09:23:04;0.20;;;0.10;;
65375;SDS011;51976;47.332;9.404;2023-11-19T09:25:31;0.68;;;0.40;;
65375;SDS011;51976;47.332;9.404;2023-11-19T09:27:56;1.60;;;0.88;;
65375;SDS011;51976;47.332;9.404;2023-11-19T09:30:22;2.03;;;0.28;;
65375;SDS011;51976;47.332;9.404;2023-11-19T09:32:47;0.40;;;0.20;;
65375;SDS011;51976;47.332;9.404;2023-11-19T09:35:13;0.70;;;0.25;;
65375;SDS011;51976;47.332;9.404;2023-11-19T09:37:39;7.13;;;3.00;;
65375;SDS011;51976;47.332;9.404;2023-11-19T09:40:06;1.52;;;0.90;;
65375;SDS011;51976;47.332;9.404;2023-11-19T09:42:36;0.90;;;0.50;;
65375;SDS011;51976;47.332;9.404;2023-11-19T09:45:08;0.30;;;0.10;;
65375;SDS011;51976;47.332;9.404;2023-11-19T09:47:39;0.30;;;0.17;;
65375;SDS011;51976;47.332;9.404;2023-11-19T09:50:05;0.80;;;0.68;;
65375;SDS011;51976;47.332;9.404;2023-11-19T09:52:31;0.68;;;0.30;;
65375;SDS011;51976;47.332;9.404;2023-11-19T09:54:56;0.65;;;0.13;;
65375;SDS011;51976;47.332;9.404;2023-11-19T09:57:22;0.20;;;0.10;;
65375;SDS011;51976;47.332;9.404;2023-11-19T09:59:47;0.50;;;0.20;;
65375;SDS011;51976;47.332;9.404;2023-11-19T10:02:14;0.30;;;0.13;;
65375;SDS011;51976;47.332;9.404;2023-11-19T10:04:40;0.45;;;0.10;;
65375;SDS011;51976;47.332;9.404;2023-11-19T10:07:08;0.90;;;0.15;;
65375;SDS011;51976;47.332;9.404;2023-11-19T10:09:34;0.95;;;0.20;;
65375;SDS011;51976;47.332;9.404;2023-11-19T10:11:59;0.32;;;0.30;;
65375;SDS011;51976;47.332;9.404;2023-11-19T10:14:24;0.80;;;0.30;;
65375;SDS011;51976;47.332;9.404;2023-11-19T10:16:51;1.08;;;0.30;;
65375;SDS011;51976;47.332;9.404;2023-11-19T10:19:19;0.30;;;0.17;;
65375;SDS011;51976;47.332;9.404;2023-11-19T10:21:45;0.25;;;0.10;;
65375;SDS011;51976;47.332;9.404;2023-11-19T10:24:11;0.57;;;0.25;;
65375;SDS011;51976;47.332;9.404;2023-11-19T10:26:36;0.30;;;0.10;;
65375;SDS011;51976;47.332;9.404;2023-11-19T10:29:02;0.85;;;0.30;;
65375;SDS011;51976;47.332;9.404;2023-11-19T10:31:29;0.70;;;0.30;;
65375;SDS011;51976;47.332;9.404;2023-11-19T10:33:54;0.30;;;0.20;;
65375;SDS011;51976;47.332;9.404;2023-11-19T10:36:19;0.32;;;0.10;;
65375;SDS011;51976;47.332;9.404;2023-11-19T10:38:51;1.83;;;0.17;;
65375;SDS011;51976;47.332;9.404;2023-11-19T10:41:27;1.10;;;0.25;;
65375;SDS011;51976;47.332;9.404;2023-11-19T10:43:56;0.70;;;0.20;;
65375;SDS011;51976;47.332;9.404;2023-11-19T10:46:22;2.55;;;1.17;;
65375;SDS011;51976;47.332;9.404;2023-11-19T10:48:48;2.03;;;0.90;;
65375;SDS011;51976;47.332;9.404;2023-11-19T10:51:18;2.75;;;1.30;;
65375;SDS011;51976;47.332;9.404;2023-11-19T10:53:48;3.25;;;1.10;;
65375;SDS011;51976;47.332;9.404;2023-11-19T10:56:15;4.72;;;2.05;;
65375;SDS011;51976;47.332;9.404;2023-11-19T10:58:44;1.45;;;0.70;;
65375;SDS011;51976;47.332;9.404;2023-11-19T11:01:15;2.47;;;1.13;;
65375;SDS011;51976;47.332;9.404;2023-11-19T11:03:44;1.75;;;1.20;;
65375;SDS011;51976;47.332;9.404;2023-11-19T11:06:11;2.85;;;1.77;;
65375;SDS011;51976;47.332;9.404;2023-11-19T11:08:38;3.60;;;1.90;;
65375;SDS011;51976;47.332;9.404;2023-11-19T11:11:04;3.25;;;1.75;;
65375;SDS011;51976;47.332;9.404;2023-11-19T11:13:31;1.88;;;1.10;;
65375;SDS011;51976;47.332;9.404;2023-11-19T11:15:57;5.32;;;1.92;;
65375;SDS011;51976;47.332;9.404;2023-11-19T11:18:23;1.98;;;0.80;;
65375;SDS011;51976;47.332;9.404;2023-11-19T11:20:50;3.92;;;1.98;;
65375;SDS011;51976;47.332;9.404;2023-11-19T11:23:52;1.60;;;0.63;;
65375;SDS011;51976;47.332;9.404;2023-11-19T11:26:35;0.73;;;0.30;;
65375;SDS011;51976;47.332;9.404;2023-11-19T11:29:38;1.48;;;0.10;;
65375;SDS011;51976;47.332;9.404;2023-11-19T11:32:37;0.50;;;0.20;;
65375;SDS011;51976;47.332;9.404;2023-11-19T11:35:16;0.32;;;0.20;;
65375;SDS011;51976;47.332;9.404;2023-11-19T11:37:55;0.40;;;0.20;;
65375;SDS011;51976;47.332;9.404;2023-11-19T11:40:25;0.90;;;0.50;;
65375;SDS011;51976;47.332;9.404;2023-11-19T11:42:51;0.63;;;0.28;;
65375;SDS011;51976;47.332;9.404;2023-11-19T11:45:17;1.20;;;0.50;;
65375;SDS011;51976;47.332;9.404;2023-11-19T11:48:10;0.90;;;0.10;;
65375;SDS011;51976;47.332;9.404;2023-11-19T11:50:35;0.60;;;0.30;;
65375;SDS011;51976;47.332;9.404;2023-11-19T11:53:13;1.20;;;0.30;;
65375;SDS011;51976;47.332;9.404;2023-11-19T11:55:53;0.55;;;0.30;;
65375;SDS011;51976;47.332;9.404;2023-11-19T11:58:27;0.93;;;0.50;;
65375;SDS011;51976;47.332;9.404;2023-11-19T12:00:58;1.75;;;0.68;;
65375;SDS011;51976;47.332;9.404;2023-11-19T12:03:26;0.90;;;0.40;;
65375;SDS011;51976;47.332;9.404;2023-11-19T12:05:54;2.47;;;0.57;;
65375;SDS011;51976;47.332;9.404;2023-11-19T12:08:20;1.30;;;0.82;;
65375;SDS011;51976;47.332;9.404;2023-11-19T12:10:51;2.20;;;0.22;;
65375;SDS011;51976;47.332;9.404;2023-11-19T12:13:17;1.25;;;0.30;;
65375;SDS011;51976;47.332;9.404;2023-11-19T12:18:33;3.80;;;0.20;;
65375;SDS011;51976;47.332;9.404;2023-11-19T12:20:59;0.38;;;0.10;;
65375;SDS011;51976;47.332;9.404;2023-11-19T12:23:31;0.30;;;0.20;;
65375;SDS011;51976;47.332;9.404;2023-11-19T12:25:57;0.20;;;0.10;;
65375;SDS011;51976;47.332;9.404;2023-11-19T12:28:23;0.35;;;0.10;;
65375;SDS011;51976;47.332;9.404;2023-11-19T12:30:51;0.15;;;0.10;;
65375;SDS011;51976;47.332;9.404;2023-11-19T12:33:18;0.77;;;0.15;;
65375;SDS011;51976;47.332;9.404;2023-11-19T12:35:45;0.38;;;0.20;;
65375;SDS011;51976;47.332;9.404;2023-11-19T12:38:19;0.30;;;0.10;;
65375;SDS011;51976;47.332;9.404;2023-11-19T12:41:06;0.38;;;0.20;;
65375;SDS011;51976;47.332;9.404;2023-11-19T12:43:33;0.90;;;0.17;;
65375;SDS011;51976;47.332;9.404;2023-11-19T12:46:03;0.45;;;0.13;;
65375;SDS011;51976;47.332;9.404;2023-11-19T12:48:41;0.60;;;0.20;;
65375;SDS011;51976;47.332;9.404;2023-11-19T12:51:07;0.30;;;0.10;;
65375;SDS011;51976;47.332;9.404;2023-11-19T12:53:46;0.70;;;0.20;;
65375;SDS011;51976;47.332;9.404;2023-11-19T12:56:15;2.22;;;0.10;;
65375;SDS011;51976;47.332;9.404;2023-11-19T12:58:41;0.93;;;0.30;;
65375;SDS011;51976;47.332;9.404;2023-11-19T13:01:08;1.40;;;0.30;;
65375;SDS011;51976;47.332;9.404;2023-11-19T13:03:37;2.17;;;1.25;;
65375;SDS011;51976;47.332;9.404;2023-11-19T13:06:06;2.88;;;1.63;;
65375;SDS011;51976;47.332;9.404;2023-11-19T13:08:43;4.53;;;1.55;;
65375;SDS011;51976;47.332;9.404;2023-11-19T13:11:12;2.50;;;0.82;;
65375;SDS011;51976;47.332;9.404;2023-11-19T13:13:56;1.58;;;0.90;;
65375;SDS011;51976;47.332;9.404;2023-11-19T13:16:23;1.85;;;0.90;;
65375;SDS011;51976;47.332;9.404;2023-11-19T13:18:49;1.73;;;0.77;;
65375;SDS011;51976;47.332;9.404;2023-11-19T13:21:14;0.40;;;0.20;;
65375;SDS011;51976;47.332;9.404;2023-11-19T13:23:39;1.27;;;0.47;;
65375;SDS011;51976;47.332;9.404;2023-11-19T13:26:05;0.95;;;0.43;;
65375;SDS011;51976;47.332;9.404;2023-11-19T13:28:30;2.17;;;0.90;;
65375;SDS011;51976;47.332;9.404;2023-11-19T13:30:56;1.20;;;0.60;;
65375;SDS011;51976;47.332;9.404;2023-11-19T13:33:21;0.93;;;0.60;;
65375;SDS011;51976;47.332;9.404;2023-11-19T13:35:46;1.17;;;0.30;;
65375;SDS011;51976;47.332;9.404;2023-11-19T13:38:12;1.13;;;0.52;;
65375;SDS011;51976;47.332;9.404;2023-11-19T13:40:37;1.30;;;0.70;;
65375;SDS011;51976;47.332;9.404;2023-11-19T13:43:04;1.00;;;0.50;;
65375;SDS011;51976;47.332;9.404;2023-11-19T13:45:29;0.10;;;0.00;;
65375;SDS011;51976;47.332;9.404;2023-11-19T13:47:55;0.30;;;0.10;;
65375;SDS011;51976;47.332;9.404;2023-11-19T13:50:20;0.00;;;0.00;;
65375;SDS011;51976;47.332;9.404;2023-11-19T13:52:47;0.68;;;0.20;;
65375;SDS011;51976;47.332;9.404;2023-11-19T13:55:13;1.58;;;0.10;;
65375;SDS011;51976;47.332;9.404;2023-11-19T13:57:39;0.17;;;0.10;;
65375;SDS011;51976;47.332;9.404;2023-11-19T14:00:06;0.10;;;0.08;;
65375;SDS011;51976;47.332;9.404;2023-11-19T14:02:41;0.50;;;0.10;;
65375;SDS011;51976;47.332;9.404;2023-11-19T14:05:08;0.15;;;0.05;;
65375;SDS011;51976;47.332;9.404;2023-11-19T14:07:34;0.15;;;0.10;;
65375;SDS011;51976;47.332;9.404;2023-11-19T14:09:59;0.85;;;0.10;;
65375;SDS011;51976;47.332;9.404;2023-11-19T14:12:25;0.68;;;0.10;;
65375;SDS011;51976;47.332;9.404;2023-11-19T14:14:50;1.42;;;0.20;;
65375;SDS011;51976;47.332;9.404;2023-11-19T14:17:15;0.20;;;0.10;;
65375;SDS011;51976;47.332;9.404;2023-11-19T14:19:41;0.32;;;0.10;;
65375;SDS011;51976;47.332;9.404;2023-11-19T14:22:08;0.35;;;0.10;;
65375;SDS011;51976;47.332;9.404;2023-11-19T14:24:33;1.13;;;0.17;;
65375;SDS011;51976;47.332;9.404;2023-11-19T14:26:59;0.45;;;0.20;;
65375;SDS011;51976;47.332;9.404;2023-11-19T14:29:25;0.50;;;0.20;;
65375;SDS011;51976;47.332;9.404;2023-11-19T14:31:51;1.95;;;0.20;;
65375;SDS011;51976;47.332;9.404;2023-11-19T14:34:17;0.50;;;0.30;;
65375;SDS011;51976;47.332;9.404;2023-11-19T14:36:44;1.13;;;0.40;;
65375;SDS011;51976;47.332;9.404;2023-11-19T14:39:09;0.80;;;0.20;;
65375;SDS011;51976;47.332;9.404;2023-11-19T14:41:35;0.43;;;0.10;;
65375;SDS011;51976;47.332;9.404;2023-11-19T14:44:00;0.52;;;0.40;;
65375;SDS011;51976;47.332;9.404;2023-11-19T14:46:26;0.52;;;0.20;;
65375;SDS011;51976;47.332;9.404;2023-11-19T14:48:52;1.10;;;0.40;;